sensor_id;sensor_type;location;lat;lon;timestamp;pressure;altitude;pressure_sealevel;temperature;humidity
65832;BME280;52593;42.648;23.332;2023-04-12T00:01:44;93637.59;;;7.37;74.15
65832;BME280;52593;42.648;23.332;2023-04-12T00:04:10;93645.09;;;7.33;74.22
65832;BME280;52593;42.648;23.332;2023-04-12T00:06:43;93651.09;;;7.35;74.13
65832;BME280;52593;42.648;23.332;2023-04-12T00:09:13;93647.41;;;7.36;74.54
65832;BME280;52593;42.648;23.332;2023-04-12T00:11:40;93644.53;;;7.38;74.26
65832;BME280;52593;42.648;23.332;2023-04-12T00:14:05;93645.03;;;7.41;74.10
65832;BME280;52593;42.648;23.332;2023-04-12T00:16:31;93627.13;;;7.35;73.94
65832;BME280;52593;42.648;23.332;2023-04-12T00:18:56;93623.44;;;7.36;74.09
65832;BME280;52593;42.648;23.332;2023-04-12T00:21:21;93630.06;;;7.40;74.03
65832;BME280;52593;42.648;23.332;2023-04-12T00:23:48;93620.16;;;7.34;74.31
65832;BME280;52593;42.648;23.332;2023-04-12T00:26:14;93621.69;;;7.43;73.82
65832;BME280;52593;42.648;23.332;2023-04-12T00:28:43;93614.72;;;7.42;73.75
65832;BME280;52593;42.648;23.332;2023-04-12T00:31:08;93622.31;;;7.45;73.83
65832;BME280;52593;42.648;23.332;2023-04-12T00:33:35;93620.31;;;7.47;73.63
65832;BME280;52593;42.648;23.332;2023-04-12T00:36:01;93622.41;;;7.52;73.83
65832;BME280;52593;42.648;23.332;2023-04-12T00:38:27;93623.03;;;7.54;73.92
65832;BME280;52593;42.648;23.332;2023-04-12T00:40:52;93629.75;;;7.50;73.98
65832;BME280;52593;42.648;23.332;2023-04-12T00:43:18;93628.38;;;7.54;73.54
65832;BME280;52593;42.648;23.332;2023-04-12T00:45:45;93626.09;;;7.51;73.68
65832;BME280;52593;42.648;23.332;2023-04-12T00:48:11;93606.72;;;7.42;73.56
65832;BME280;52593;42.648;23.332;2023-04-12T00:50:37;93634.50;;;7.55;73.76
65832;BME280;52593;42.648;23.332;2023-04-12T00:53:12;93618.28;;;7.49;73.83
65832;BME280;52593;42.648;23.332;2023-04-12T00:55:43;93617.47;;;7.49;73.77
65832;BME280;52593;42.648;23.332;2023-04-12T00:58:08;93621.56;;;7.52;73.72
65832;BME280;52593;42.648;23.332;2023-04-12T01:00:34;93613.97;;;7.48;73.68
65832;BME280;52593;42.648;23.332;2023-04-12T01:03:00;93609.38;;;7.42;74.05
65832;BME280;52593;42.648;23.332;2023-04-12T01:05:27;93615.47;;;7.36;74.29
65832;BME280;52593;42.648;23.332;2023-04-12T01:10:45;93615.75;;;7.41;74.46
65832;BME280;52593;42.648;23.332;2023-04-12T01:15:53;93610.31;;;7.35;74.26
65832;BME280;52593;42.648;23.332;2023-04-12T01:18:24;93599.44;;;7.29;74.38
65832;BME280;52593;42.648;23.332;2023-04-12T01:21:05;93609.06;;;7.30;74.56
65832;BME280;52593;42.648;23.332;2023-04-12T01:26:41;93611.06;;;7.28;74.58
65832;BME280;52593;42.648;23.332;2023-04-12T01:29:13;93605.00;;;7.35;74.08
65832;BME280;52593;42.648;23.332;2023-04-12T01:31:44;93588.22;;;7.34;73.79
65832;BME280;52593;42.648;23.332;2023-04-12T01:34:13;93588.59;;;7.31;73.90
65832;BME280;52593;42.648;23.332;2023-04-12T01:36:40;93605.91;;;7.42;73.66
65832;BME280;52593;42.648;23.332;2023-04-12T01:39:08;93597.38;;;7.31;74.11
65832;BME280;52593;42.648;23.332;2023-04-12T01:41:38;93590.50;;;7.37;73.58
65832;BME280;52593;42.648;23.332;2023-04-12T01:44:04;93597.00;;;7.35;74.09
65832;BME280;52593;42.648;23.332;2023-04-12T01:46:29;93601.59;;;7.41;73.33
65832;BME280;52593;42.648;23.332;2023-04-12T01:48:57;93606.47;;;7.37;73.70
65832;BME280;52593;42.648;23.332;2023-04-12T01:51:44;93610.13;;;7.36;73.99
65832;BME280;52593;42.648;23.332;2023-04-12T01:54:23;93602.34;;;7.35;73.69
65832;BME280;52593;42.648;23.332;2023-04-12T01:56:55;93594.91;;;7.30;74.49
65832;BME280;52593;42.648;23.332;2023-04-12T01:59:30;93603.19;;;7.35;74.26
65832;BME280;52593;42.648;23.332;2023-04-12T02:01:55;93591.25;;;7.31;74.14
65832;BME280;52593;42.648;23.332;2023-04-12T02:04:23;93588.88;;;7.21;74.21
65832;BME280;52593;42.648;23.332;2023-04-12T02:06:50;93583.56;;;7.21;74.70
65832;BME280;52593;42.648;23.332;2023-04-12T02:09:16;93590.34;;;7.24;74.37
65832;BME280;52593;42.648;23.332;2023-04-12T02:11:45;93604.94;;;7.28;74.10
65832;BME280;52593;42.648;23.332;2023-04-12T02:14:10;93584.41;;;7.22;73.91
65832;BME280;52593;42.648;23.332;2023-04-12T02:16:36;93594.28;;;7.28;74.00
65832;BME280;52593;42.648;23.332;2023-04-12T02:19:01;93576.41;;;7.22;74.14
65832;BME280;52593;42.648;23.332;2023-04-12T02:21:28;93595.03;;;7.22;74.76
65832;BME280;52593;42.648;23.332;2023-04-12T02:23:53;93585.41;;;7.21;74.26
65832;BME280;52593;42.648;23.332;2023-04-12T02:26:18;93588.97;;;7.28;74.16
65832;BME280;52593;42.648;23.332;2023-04-12T02:28:44;93575.47;;;7.29;73.76
65832;BME280;52593;42.648;23.332;2023-04-12T02:31:10;93593.53;;;7.34;73.94
65832;BME280;52593;42.648;23.332;2023-04-12T02:33:36;93582.47;;;7.30;74.05
65832;BME280;52593;42.648;23.332;2023-04-12T02:36:01;93593.91;;;7.31;74.51
65832;BME280;52593;42.648;23.332;2023-04-12T02:38:27;93578.50;;;7.26;74.41
65832;BME280;52593;42.648;23.332;2023-04-12T02:40:53;93572.56;;;7.24;74.43
65832;BME280;52593;42.648;23.332;2023-04-12T02:43:18;93573.22;;;7.11;74.75
65832;BME280;52593;42.648;23.332;2023-04-12T02:45:44;93582.38;;;7.24;74.82
65832;BME280;52593;42.648;23.332;2023-04-12T02:48:09;93581.38;;;7.25;74.75
65832;BME280;52593;42.648;23.332;2023-04-12T02:50:36;93573.75;;;7.22;74.37
65832;BME280;52593;42.648;23.332;2023-04-12T02:53:01;93571.47;;;7.19;74.72
65832;BME280;52593;42.648;23.332;2023-04-12T02:55:26;93580.69;;;7.23;74.58
65832;BME280;52593;42.648;23.332;2023-04-12T02:57:52;93574.56;;;7.22;74.23
65832;BME280;52593;42.648;23.332;2023-04-12T03:00:17;93564.75;;;7.23;73.74
65832;BME280;52593;42.648;23.332;2023-04-12T03:02:44;93576.28;;;7.30;74.15
65832;BME280;52593;42.648;23.332;2023-04-12T03:05:10;93578.38;;;7.35;73.94
65832;BME280;52593;42.648;23.332;2023-04-12T03:07:36;93569.97;;;7.31;74.13
65832;BME280;52593;42.648;23.332;2023-04-12T03:10:03;93578.84;;;7.38;73.80
65832;BME280;52593;42.648;23.332;2023-04-12T03:12:31;93568.13;;;7.31;74.39
65832;BME280;52593;42.648;23.332;2023-04-12T03:14:56;93573.34;;;7.40;74.18
65832;BME280;52593;42.648;23.332;2023-04-12T03:17:21;93565.94;;;7.35;74.53
65832;BME280;52593;42.648;23.332;2023-04-12T03:19:48;93577.25;;;7.44;74.01
65832;BME280;52593;42.648;23.332;2023-04-12T03:22:13;93581.78;;;7.43;74.76
65832;BME280;52593;42.648;23.332;2023-04-12T03:24:38;93586.47;;;7.41;75.19
65832;BME280;52593;42.648;23.332;2023-04-12T03:27:07;93566.81;;;7.42;75.30
65832;BME280;52593;42.648;23.332;2023-04-12T03:29:32;93564.91;;;7.36;75.59
65832;BME280;52593;42.648;23.332;2023-04-12T03:31:57;93573.53;;;7.38;75.95
65832;BME280;52593;42.648;23.332;2023-04-12T03:34:24;93572.88;;;7.36;76.86
65832;BME280;52593;42.648;23.332;2023-04-12T03:36:52;93569.84;;;7.39;76.81
65832;BME280;52593;42.648;23.332;2023-04-12T03:39:18;93569.59;;;7.34;77.13
65832;BME280;52593;42.648;23.332;2023-04-12T03:41:43;93575.34;;;7.38;76.86
65832;BME280;52593;42.648;23.332;2023-04-12T03:44:08;93580.97;;;7.43;76.18
65832;BME280;52593;42.648;23.332;2023-04-12T03:46:34;93582.59;;;7.44;76.48
65832;BME280;52593;42.648;23.332;2023-04-12T03:49:00;93580.97;;;7.43;75.58
65832;BME280;52593;42.648;23.332;2023-04-12T03:51:25;93572.13;;;7.42;74.99
65832;BME280;52593;42.648;23.332;2023-04-12T03:53:53;93579.53;;;7.47;75.19
65832;BME280;52593;42.648;23.332;2023-04-12T03:56:19;93585.53;;;7.49;75.14
65832;BME280;52593;42.648;23.332;2023-04-12T03:58:45;93577.44;;;7.42;75.29
65832;BME280;52593;42.648;23.332;2023-04-12T04:01:11;93585.25;;;7.44;75.04
65832;BME280;52593;42.648;23.332;2023-04-12T04:03:39;93588.00;;;7.50;74.76
65832;BME280;52593;42.648;23.332;2023-04-12T04:06:06;93589.00;;;7.49;74.95
65832;BME280;52593;42.648;23.332;2023-04-12T04:08:31;93600.84;;;7.47;75.20
65832;BME280;52593;42.648;23.332;2023-04-12T04:10:58;93580.50;;;7.39;75.61
65832;BME280;52593;42.648;23.332;2023-04-12T04:13:24;93602.69;;;7.46;75.36
65832;BME280;52593;42.648;23.332;2023-04-12T04:16:01;93603.97;;;7.50;74.76
65832;BME280;52593;42.648;23.332;2023-04-12T04:18:27;93597.94;;;7.42;74.64
65832;BME280;52593;42.648;23.332;2023-04-12T04:20:53;93618.53;;;7.55;74.61
65832;BME280;52593;42.648;23.332;2023-04-12T04:23:18;93616.44;;;7.50;74.56
65832;BME280;52593;42.648;23.332;2023-04-12T04:25:43;93627.38;;;7.55;74.53
65832;BME280;52593;42.648;23.332;2023-04-12T04:28:10;93625.91;;;7.53;74.61
65832;BME280;52593;42.648;23.332;2023-04-12T04:30:35;93625.28;;;7.50;74.74
65832;BME280;52593;42.648;23.332;2023-04-12T04:33:05;93639.94;;;7.46;75.15
65832;BME280;52593;42.648;23.332;2023-04-12T04:35:31;93643.06;;;7.50;74.94
65832;BME280;52593;42.648;23.332;2023-04-12T04:37:56;93654.91;;;7.47;74.87
65832;BME280;52593;42.648;23.332;2023-04-12T04:40:22;93637.03;;;7.41;74.97
65832;BME280;52593;42.648;23.332;2023-04-12T04:42:49;93648.56;;;7.48;74.37
65832;BME280;52593;42.648;23.332;2023-04-12T04:45:24;93638.28;;;7.45;74.74
65832;BME280;52593;42.648;23.332;2023-04-12T04:47:55;93649.59;;;7.47;74.52
65832;BME280;52593;42.648;23.332;2023-04-12T04:50:21;93634.38;;;7.41;74.21
65832;BME280;52593;42.648;23.332;2023-04-12T04:52:50;93648.19;;;7.52;73.87
65832;BME280;52593;42.648;23.332;2023-04-12T04:55:16;93658.97;;;7.43;73.48
65832;BME280;52593;42.648;23.332;2023-04-12T04:57:42;93650.72;;;7.38;73.22
65832;BME280;52593;42.648;23.332;2023-04-12T05:00:08;93659.69;;;7.52;73.31
65832;BME280;52593;42.648;23.332;2023-04-12T05:02:38;93655.56;;;7.49;72.91
65832;BME280;52593;42.648;23.332;2023-04-12T05:05:08;93655.56;;;7.49;72.59
65832;BME280;52593;42.648;23.332;2023-04-12T05:07:33;93664.16;;;7.52;71.57
65832;BME280;52593;42.648;23.332;2023-04-12T05:09:58;93663.78;;;7.55;71.91
65832;BME280;52593;42.648;23.332;2023-04-12T05:12:24;93663.91;;;7.46;72.06
65832;BME280;52593;42.648;23.332;2023-04-12T05:14:49;93657.97;;;7.44;72.04
65832;BME280;52593;42.648;23.332;2023-04-12T05:17:15;93666.50;;;7.40;71.98
65832;BME280;52593;42.648;23.332;2023-04-12T05:19:40;93671.16;;;7.53;71.44
65832;BME280;52593;42.648;23.332;2023-04-12T05:22:07;93684.72;;;7.58;71.37
65832;BME280;52593;42.648;23.332;2023-04-12T05:24:33;93665.84;;;7.38;71.12
65832;BME280;52593;42.648;23.332;2023-04-12T05:26:58;93679.75;;;7.55;69.88
65832;BME280;52593;42.648;23.332;2023-04-12T05:29:24;93685.09;;;7.55;69.55
65832;BME280;52593;42.648;23.332;2023-04-12T05:31:49;93676.09;;;7.56;69.30
65832;BME280;52593;42.648;23.332;2023-04-12T05:34:14;93678.88;;;7.47;68.26
65832;BME280;52593;42.648;23.332;2023-04-12T05:36:40;93677.84;;;7.48;68.15
65832;BME280;52593;42.648;23.332;2023-04-12T05:39:05;93679.50;;;7.49;68.97
65832;BME280;52593;42.648;23.332;2023-04-12T05:41:31;93686.19;;;7.60;67.91
65832;BME280;52593;42.648;23.332;2023-04-12T05:43:56;93681.34;;;7.49;67.49
65832;BME280;52593;42.648;23.332;2023-04-12T05:46:21;93674.38;;;7.48;67.44
65832;BME280;52593;42.648;23.332;2023-04-12T05:48:47;93670.72;;;7.49;67.43
65832;BME280;52593;42.648;23.332;2023-04-12T05:51:12;93675.47;;;7.54;66.71
65832;BME280;52593;42.648;23.332;2023-04-12T05:53:37;93674.81;;;7.52;66.01
65832;BME280;52593;42.648;23.332;2023-04-12T05:56:03;93670.72;;;7.49;66.30
65832;BME280;52593;42.648;23.332;2023-04-12T05:58:28;93686.94;;;7.54;65.69
65832;BME280;52593;42.648;23.332;2023-04-12T06:00:54;93678.50;;;7.36;65.37
65832;BME280;52593;42.648;23.332;2023-04-12T06:03:20;93706.50;;;7.46;64.72
65832;BME280;52593;42.648;23.332;2023-04-12T06:05:48;93708.97;;;7.33;64.67
65832;BME280;52593;42.648;23.332;2023-04-12T06:08:13;93704.75;;;7.24;65.05
65832;BME280;52593;42.648;23.332;2023-04-12T06:10:39;93703.75;;;7.25;65.54
65832;BME280;52593;42.648;23.332;2023-04-12T06:13:04;93704.75;;;7.09;66.23
65832;BME280;52593;42.648;23.332;2023-04-12T06:15:30;93712.84;;;7.16;66.05
65832;BME280;52593;42.648;23.332;2023-04-12T06:17:56;93719.44;;;7.20;65.94
65832;BME280;52593;42.648;23.332;2023-04-12T06:20:23;93710.91;;;7.09;66.42
65832;BME280;52593;42.648;23.332;2023-04-12T06:22:49;93723.19;;;7.10;66.69
65832;BME280;52593;42.648;23.332;2023-04-12T06:25:14;93715.66;;;6.99;67.45
65832;BME280;52593;42.648;23.332;2023-04-12T06:27:41;93711.47;;;7.05;67.81
65832;BME280;52593;42.648;23.332;2023-04-12T06:30:07;93712.91;;;7.07;68.44
65832;BME280;52593;42.648;23.332;2023-04-12T06:32:32;93717.41;;;7.07;69.87
65832;BME280;52593;42.648;23.332;2023-04-12T06:34:58;93711.66;;;7.03;69.52
65832;BME280;52593;42.648;23.332;2023-04-12T06:37:23;93725.56;;;7.05;69.76
65832;BME280;52593;42.648;23.332;2023-04-12T06:39:48;93717.78;;;7.19;69.55
65832;BME280;52593;42.648;23.332;2023-04-12T06:42:16;93707.41;;;7.24;68.78
65832;BME280;52593;42.648;23.332;2023-04-12T06:44:42;93710.38;;;7.29;68.97
65832;BME280;52593;42.648;23.332;2023-04-12T06:47:07;93697.41;;;7.41;67.53
65832;BME280;52593;42.648;23.332;2023-04-12T06:49:33;93696.75;;;7.54;66.91
65832;BME280;52593;42.648;23.332;2023-04-12T06:51:58;93704.09;;;7.52;66.92
65832;BME280;52593;42.648;23.332;2023-04-12T06:54:24;93702.53;;;7.42;66.56
65832;BME280;52593;42.648;23.332;2023-04-12T06:56:49;93698.88;;;7.43;66.68
65832;BME280;52593;42.648;23.332;2023-04-12T06:59:15;93706.69;;;7.45;66.82
65832;BME280;52593;42.648;23.332;2023-04-12T07:01:41;93694.94;;;7.39;65.92
65832;BME280;52593;42.648;23.332;2023-04-12T07:04:06;93688.31;;;7.50;66.36
65832;BME280;52593;42.648;23.332;2023-04-12T07:06:31;93695.47;;;7.64;65.81
65832;BME280;52593;42.648;23.332;2023-04-12T07:08:57;93687.78;;;7.76;64.95
65832;BME280;52593;42.648;23.332;2023-04-12T07:11:22;93691.19;;;7.85;64.98
65832;BME280;52593;42.648;23.332;2023-04-12T07:13:48;93702.28;;;7.89;64.32
65832;BME280;52593;42.648;23.332;2023-04-12T07:16:14;93685.47;;;7.88;63.51
65832;BME280;52593;42.648;23.332;2023-04-12T07:18:39;93708.66;;;8.09;63.78
65832;BME280;52593;42.648;23.332;2023-04-12T07:21:05;93695.72;;;8.28;63.17
65832;BME280;52593;42.648;23.332;2023-04-12T07:23:31;93700.28;;;8.34;62.85
65832;BME280;52593;42.648;23.332;2023-04-12T07:26:00;93709.47;;;8.31;63.20
65832;BME280;52593;42.648;23.332;2023-04-12T07:28:26;93711.84;;;8.19;63.30
65832;BME280;52593;42.648;23.332;2023-04-12T07:30:51;93686.91;;;8.06;63.35
65832;BME280;52593;42.648;23.332;2023-04-12T07:33:17;93686.59;;;8.15;64.07
65832;BME280;52593;42.648;23.332;2023-04-12T07:35:42;93673.41;;;8.07;63.89
65832;BME280;52593;42.648;23.332;2023-04-12T07:38:08;93677.88;;;8.07;64.07
65832;BME280;52593;42.648;23.332;2023-04-12T07:40:33;93699.34;;;8.20;63.66
65832;BME280;52593;42.648;23.332;2023-04-12T07:42:58;93691.84;;;8.09;63.92
65832;BME280;52593;42.648;23.332;2023-04-12T07:45:24;93696.72;;;8.05;63.65
65832;BME280;52593;42.648;23.332;2023-04-12T07:47:49;93674.81;;;7.88;63.96
65832;BME280;52593;42.648;23.332;2023-04-12T07:50:15;93682.19;;;7.86;63.41
65832;BME280;52593;42.648;23.332;2023-04-12T07:52:40;93675.31;;;8.13;63.37
65832;BME280;52593;42.648;23.332;2023-04-12T07:55:06;93683.81;;;8.45;62.94
65832;BME280;52593;42.648;23.332;2023-04-12T07:57:32;93685.31;;;8.54;61.40
65832;BME280;52593;42.648;23.332;2023-04-12T07:59:57;93660.41;;;8.69;59.29
65832;BME280;52593;42.648;23.332;2023-04-12T08:02:22;93661.56;;;8.88;57.01
65832;BME280;52593;42.648;23.332;2023-04-12T08:04:54;93651.81;;;8.67;56.65
65832;BME280;52593;42.648;23.332;2023-04-12T08:07:19;93652.88;;;8.51;57.30
65832;BME280;52593;42.648;23.332;2023-04-12T08:09:47;93645.59;;;8.60;57.52
65832;BME280;52593;42.648;23.332;2023-04-12T08:12:13;93641.91;;;8.61;56.73
65832;BME280;52593;42.648;23.332;2023-04-12T08:14:38;93641.84;;;8.54;56.80
65832;BME280;52593;42.648;23.332;2023-04-12T08:17:03;93651.88;;;8.52;56.96
65832;BME280;52593;42.648;23.332;2023-04-12T08:19:29;93659.81;;;8.45;56.64
65832;BME280;52593;42.648;23.332;2023-04-12T08:21:54;93668.69;;;8.31;54.08
65832;BME280;52593;42.648;23.332;2023-04-12T08:24:20;93667.59;;;8.25;53.73
65832;BME280;52593;42.648;23.332;2023-04-12T08:26:46;93659.19;;;8.21;51.86
65832;BME280;52593;42.648;23.332;2023-04-12T08:29:11;93661.84;;;8.21;52.47
65832;BME280;52593;42.648;23.332;2023-04-12T08:31:37;93646.09;;;8.27;52.16
65832;BME280;52593;42.648;23.332;2023-04-12T08:34:03;93658.91;;;8.38;50.92
65832;BME280;52593;42.648;23.332;2023-04-12T08:36:28;93656.44;;;8.58;50.92
65832;BME280;52593;42.648;23.332;2023-04-12T08:38:58;93649.22;;;8.80;50.39
65832;BME280;52593;42.648;23.332;2023-04-12T08:41:23;93644.47;;;9.10;50.01
65832;BME280;52593;42.648;23.332;2023-04-12T08:43:50;93632.59;;;9.13;50.46
65832;BME280;52593;42.648;23.332;2023-04-12T08:46:15;93634.59;;;9.46;49.21
65832;BME280;52593;42.648;23.332;2023-04-12T08:48:46;93628.09;;;9.69;46.52
65832;BME280;52593;42.648;23.332;2023-04-12T08:51:13;93637.72;;;9.56;47.69
65832;BME280;52593;42.648;23.332;2023-04-12T08:53:40;93639.22;;;9.79;47.40
65832;BME280;52593;42.648;23.332;2023-04-12T08:56:08;93628.44;;;9.52;48.10
65832;BME280;52593;42.648;23.332;2023-04-12T08:58:39;93635.81;;;9.43;49.07
65832;BME280;52593;42.648;23.332;2023-04-12T09:01:12;93641.91;;;9.31;49.69
65832;BME280;52593;42.648;23.332;2023-04-12T09:03:42;93650.91;;;9.23;49.50
65832;BME280;52593;42.648;23.332;2023-04-12T09:06:08;93650.22;;;9.14;50.16
65832;BME280;52593;42.648;23.332;2023-04-12T09:08:34;93650.09;;;9.22;49.83
65832;BME280;52593;42.648;23.332;2023-04-12T09:11:00;93632.06;;;9.31;49.49
65832;BME280;52593;42.648;23.332;2023-04-12T09:13:34;93632.91;;;9.38;48.35
65832;BME280;52593;42.648;23.332;2023-04-12T09:16:02;93637.06;;;9.48;47.85
65832;BME280;52593;42.648;23.332;2023-04-12T09:18:28;93633.03;;;9.65;47.01
65832;BME280;52593;42.648;23.332;2023-04-12T09:21:05;93636.31;;;9.60;47.36
65832;BME280;52593;42.648;23.332;2023-04-12T09:23:32;93623.91;;;9.46;47.47
65832;BME280;52593;42.648;23.332;2023-04-12T09:25:57;93629.28;;;9.53;47.49
65832;BME280;52593;42.648;23.332;2023-04-12T09:28:24;93624.81;;;9.67;45.44
65832;BME280;52593;42.648;23.332;2023-04-12T09:30:54;93624.22;;;9.78;44.88
65832;BME280;52593;42.648;23.332;2023-04-12T09:33:21;93622.75;;;9.75;45.00
65832;BME280;52593;42.648;23.332;2023-04-12T09:35:47;93625.06;;;9.85;44.36
65832;BME280;52593;42.648;23.332;2023-04-12T09:38:13;93607.63;;;9.89;43.12
65832;BME280;52593;42.648;23.332;2023-04-12T09:40:39;93587.69;;;9.98;42.81
65832;BME280;52593;42.648;23.332;2023-04-12T09:43:05;93594.69;;;10.20;43.85
65832;BME280;52593;42.648;23.332;2023-04-12T09:45:35;93578.03;;;10.04;43.32
65832;BME280;52593;42.648;23.332;2023-04-12T09:48:03;93589.94;;;9.95;43.11
65832;BME280;52593;42.648;23.332;2023-04-12T09:50:29;93603.13;;;10.03;42.55
65832;BME280;52593;42.648;23.332;2023-04-12T09:52:59;93583.16;;;10.06;42.53
65832;BME280;52593;42.648;23.332;2023-04-12T09:55:26;93565.69;;;10.16;42.85
65832;BME280;52593;42.648;23.332;2023-04-12T09:57:53;93571.06;;;10.63;43.33
65832;BME280;52593;42.648;23.332;2023-04-12T10:00:21;93572.94;;;10.36;43.59
65832;BME280;52593;42.648;23.332;2023-04-12T10:02:49;93567.97;;;10.80;42.76
65832;BME280;52593;42.648;23.332;2023-04-12T10:05:17;93567.97;;;10.53;43.71
65832;BME280;52593;42.648;23.332;2023-04-12T10:07:44;93569.59;;;10.74;38.77
65832;BME280;52593;42.648;23.332;2023-04-12T10:10:11;93574.22;;;11.19;37.37
65832;BME280;52593;42.648;23.332;2023-04-12T10:12:39;93570.28;;;11.28;35.47
65832;BME280;52593;42.648;23.332;2023-04-12T10:15:06;93546.41;;;11.65;35.18
65832;BME280;52593;42.648;23.332;2023-04-12T10:20:07;93558.78;;;11.66;33.44
65832;BME280;52593;42.648;23.332;2023-04-12T10:22:34;93556.44;;;11.38;32.74
65832;BME280;52593;42.648;23.332;2023-04-12T10:25:00;93559.97;;;11.32;33.36
65832;BME280;52593;42.648;23.332;2023-04-12T10:27:26;93537.53;;;11.26;33.88
65832;BME280;52593;42.648;23.332;2023-04-12T10:29:52;93557.00;;;11.47;33.79
65832;BME280;52593;42.648;23.332;2023-04-12T10:32:21;93541.69;;;11.60;34.50
65832;BME280;52593;42.648;23.332;2023-04-12T10:34:54;93530.47;;;11.77;34.60
65832;BME280;52593;42.648;23.332;2023-04-12T10:37:21;93531.38;;;12.03;34.43
65832;BME280;52593;42.648;23.332;2023-04-12T10:39:53;93526.22;;;12.01;34.44
65832;BME280;52593;42.648;23.332;2023-04-12T10:44:45;93543.41;;;11.87;35.06
65832;BME280;52593;42.648;23.332;2023-04-12T10:47:11;93540.44;;;11.63;33.32
65832;BME280;52593;42.648;23.332;2023-04-12T10:49:37;93528.66;;;11.71;33.05
65832;BME280;52593;42.648;23.332;2023-04-12T10:52:10;93534.97;;;11.83;33.51
65832;BME280;52593;42.648;23.332;2023-04-12T10:54:37;93516.97;;;11.97;33.61
65832;BME280;52593;42.648;23.332;2023-04-12T10:57:03;93549.31;;;12.02;31.23
65832;BME280;52593;42.648;23.332;2023-04-12T10:59:51;93521.31;;;11.59;32.13
65832;BME280;52593;42.648;23.332;2023-04-12T11:02:16;93513.25;;;11.21;32.37
65832;BME280;52593;42.648;23.332;2023-04-12T11:07:46;93524.41;;;11.95;30.79
65832;BME280;52593;42.648;23.332;2023-04-12T11:10:15;93512.19;;;11.67;30.24
65832;BME280;52593;42.648;23.332;2023-04-12T11:12:50;93536.38;;;11.92;29.28
65832;BME280;52593;42.648;23.332;2023-04-12T11:15:17;93523.66;;;11.74;28.46
65832;BME280;52593;42.648;23.332;2023-04-12T11:17:52;93535.78;;;12.16;28.31
65832;BME280;52593;42.648;23.332;2023-04-12T11:20:18;93505.41;;;11.97;27.84
65832;BME280;52593;42.648;23.332;2023-04-12T11:22:44;93517.13;;;12.27;28.97
65832;BME280;52593;42.648;23.332;2023-04-12T11:25:15;93513.25;;;12.48;28.57
65832;BME280;52593;42.648;23.332;2023-04-12T11:27:48;93520.91;;;11.94;29.53
65832;BME280;52593;42.648;23.332;2023-04-12T11:30:14;93519.31;;;12.12;29.55
65832;BME280;52593;42.648;23.332;2023-04-12T11:32:43;93515.56;;;12.20;28.82
65832;BME280;52593;42.648;23.332;2023-04-12T11:35:09;93512.84;;;12.45;29.43
65832;BME280;52593;42.648;23.332;2023-04-12T11:37:34;93519.06;;;11.88;30.65
65832;BME280;52593;42.648;23.332;2023-04-12T11:40:02;93511.56;;;12.04;29.56
65832;BME280;52593;42.648;23.332;2023-04-12T11:42:30;93509.56;;;12.43;27.99
65832;BME280;52593;42.648;23.332;2023-04-12T11:44:56;93524.00;;;12.67;28.37
65832;BME280;52593;42.648;23.332;2023-04-12T11:47:23;93508.69;;;12.49;27.98
65832;BME280;52593;42.648;23.332;2023-04-12T11:49:51;93510.66;;;12.60;27.54
65832;BME280;52593;42.648;23.332;2023-04-12T11:52:18;93501.03;;;12.53;27.97
65832;BME280;52593;42.648;23.332;2023-04-12T11:54:48;93520.25;;;12.49;28.37
65832;BME280;52593;42.648;23.332;2023-04-12T11:57:16;93503.31;;;12.93;27.42
65832;BME280;52593;42.648;23.332;2023-04-12T11:59:46;93508.66;;;12.74;28.14
65832;BME280;52593;42.648;23.332;2023-04-12T12:02:13;93527.25;;;12.51;28.79
65832;BME280;52593;42.648;23.332;2023-04-12T12:04:44;93521.19;;;12.37;28.73
65832;BME280;52593;42.648;23.332;2023-04-12T12:07:11;93519.44;;;12.24;28.54
65832;BME280;52593;42.648;23.332;2023-04-12T12:09:38;93514.72;;;12.44;29.93
65832;BME280;52593;42.648;23.332;2023-04-12T12:12:03;93504.13;;;12.49;29.51
65832;BME280;52593;42.648;23.332;2023-04-12T12:14:32;93513.34;;;12.60;29.84
65832;BME280;52593;42.648;23.332;2023-04-12T12:16:58;93500.88;;;12.66;29.15
65832;BME280;52593;42.648;23.332;2023-04-12T12:19:31;93505.25;;;12.42;29.04
65832;BME280;52593;42.648;23.332;2023-04-12T12:24:34;93483.88;;;13.09;28.36
65832;BME280;52593;42.648;23.332;2023-04-12T12:27:01;93501.72;;;13.41;28.70
65832;BME280;52593;42.648;23.332;2023-04-12T12:29:33;93500.97;;;12.78;29.04
65832;BME280;52593;42.648;23.332;2023-04-12T12:31:59;93510.25;;;13.00;28.89
65832;BME280;52593;42.648;23.332;2023-04-12T12:34:30;93483.22;;;12.95;29.62
65832;BME280;52593;42.648;23.332;2023-04-12T12:36:56;93507.22;;;12.28;28.75
65832;BME280;52593;42.648;23.332;2023-04-12T12:39:21;93493.22;;;12.26;29.42
65832;BME280;52593;42.648;23.332;2023-04-12T12:41:53;93491.81;;;12.85;29.48
65832;BME280;52593;42.648;23.332;2023-04-12T12:44:20;93503.06;;;12.57;30.28
65832;BME280;52593;42.648;23.332;2023-04-12T12:46:45;93541.69;;;12.49;30.74
65832;BME280;52593;42.648;23.332;2023-04-12T12:49:11;93509.03;;;12.59;30.85
65832;BME280;52593;42.648;23.332;2023-04-12T12:51:37;93524.25;;;12.84;29.83
65832;BME280;52593;42.648;23.332;2023-04-12T12:54:02;93499.94;;;12.97;29.16
65832;BME280;52593;42.648;23.332;2023-04-12T12:56:28;93501.81;;;13.34;28.45
65832;BME280;52593;42.648;23.332;2023-04-12T12:58:54;93513.97;;;13.36;27.44
65832;BME280;52593;42.648;23.332;2023-04-12T13:01:19;93525.59;;;13.30;27.54
65832;BME280;52593;42.648;23.332;2023-04-12T13:03:45;93498.94;;;13.47;28.30
65832;BME280;52593;42.648;23.332;2023-04-12T13:06:10;93518.66;;;13.41;28.76
65832;BME280;52593;42.648;23.332;2023-04-12T13:08:36;93513.00;;;13.31;28.63
65832;BME280;52593;42.648;23.332;2023-04-12T13:11:01;93511.19;;;13.62;28.65
65832;BME280;52593;42.648;23.332;2023-04-12T13:13:27;93493.09;;;13.81;28.17
65832;BME280;52593;42.648;23.332;2023-04-12T13:15:52;93494.59;;;13.77;27.80